createdAt,value
2022-11-10T00:01:13.376Z,99545.16
2022-11-10T00:03:59.689Z,99546.78
2022-11-10T00:06:48.928Z,99552.00
2022-11-10T00:09:35.475Z,99563.72
2022-11-10T00:12:23.174Z,99558.37
2022-11-10T00:15:29.004Z,99555.94
2022-11-10T00:18:15.565Z,99566.13
2022-11-10T00:21:07.214Z,99566.19
2022-11-10T00:23:53.416Z,99562.75
2022-11-10T00:26:39.745Z,99566.56
2022-11-10T00:29:26.305Z,99567.72
2022-11-10T00:32:12.674Z,99574.84
2022-11-10T00:34:59.075Z,99577.56
2022-11-10T00:37:45.365Z,99573.87
2022-11-10T00:40:31.994Z,99571.66
2022-11-10T00:43:21.295Z,99567.03
2022-11-10T00:46:11.785Z,99561.78
2022-11-10T00:48:58.254Z,99569.94
2022-11-10T00:51:44.325Z,99565.34
2022-11-10T00:54:30.940Z,99574.78
2022-11-10T00:57:17.213Z,99563.00
2022-11-10T01:00:04.871Z,99564.16
2022-11-10T01:02:51.228Z,99562.38
2022-11-10T01:05:38.604Z,99563.75
2022-11-10T01:08:24.797Z,99552.69
2022-11-10T01:11:10.966Z,99562.16
2022-11-10T01:13:57.985Z,99555.44
2022-11-10T01:16:44.315Z,99559.16
2022-11-10T01:19:30.665Z,99561.53
2022-11-10T01:22:17.276Z,99562.78
2022-11-10T01:25:03.686Z,99562.34
2022-11-10T01:27:50.785Z,99560.91
2022-11-10T01:30:37.266Z,99561.56
2022-11-10T01:33:23.771Z,99567.94
2022-11-10T01:36:10.785Z,99565.25
2022-11-10T01:38:57.006Z,99563.59
2022-11-10T01:41:43.427Z,99561.09
2022-11-10T01:44:29.917Z,99572.41
2022-11-10T01:47:16.285Z,99567.75
2022-11-10T01:50:02.905Z,99566.00
2022-11-10T01:52:51.115Z,99567.19
2022-11-10T01:55:39.724Z,99561.63
2022-11-10T01:58:31.215Z,99573.47
2022-11-10T02:01:17.968Z,99570.34
2022-11-10T02:04:06.864Z,99573.66
2022-11-10T02:06:53.860Z,99572.22
2022-11-10T02:09:40.144Z,99581.25
2022-11-10T02:12:38.158Z,99580.94
2022-11-10T02:15:25.644Z,99584.66
2022-11-10T02:18:12.236Z,99582.63
2022-11-10T02:20:58.758Z,99590.66
2022-11-10T02:23:50.285Z,99588.66
2022-11-10T02:26:40.005Z,99594.25
2022-11-10T02:29:26.785Z,99595.00
2022-11-10T02:32:13.154Z,99594.69
2022-11-10T02:34:59.361Z,99598.31
2022-11-10T02:37:45.575Z,99599.34
2022-11-10T02:40:31.735Z,99604.19
2022-11-10T02:43:20.241Z,99602.78
2022-11-10T02:46:07.043Z,99607.44
2022-11-10T02:48:53.315Z,99596.72
2022-11-10T02:51:39.776Z,99600.03
2022-11-10T02:54:26.074Z,99605.22
2022-11-10T02:57:12.145Z,99607.75
2022-11-10T02:59:58.885Z,99609.09
2022-11-10T03:02:45.115Z,99616.41
2022-11-10T03:05:32.052Z,99623.03
2022-11-10T03:08:18.475Z,99623.56
2022-11-10T03:11:04.725Z,99626.38
2022-11-10T03:14:01.428Z,99636.31
2022-11-10T03:16:48.118Z,99641.72
2022-11-10T03:19:34.393Z,99643.94
2022-11-10T03:22:20.504Z,99637.31
2022-11-10T03:25:08.044Z,99635.22
2022-11-10T03:27:54.334Z,99638.53
2022-11-10T03:30:41.219Z,99634.87
2022-11-10T03:33:27.508Z,99639.62
2022-11-10T03:36:13.995Z,99641.81
2022-11-10T03:39:00.314Z,99640.19
2022-11-10T03:41:46.629Z,99652.59
2022-11-10T03:44:32.958Z,99645.69
2022-11-10T03:47:19.854Z,99655.31
2022-11-10T03:50:06.922Z,99652.16
2022-11-10T03:52:53.136Z,99658.19
2022-11-10T03:55:39.654Z,99659.63
2022-11-10T03:58:25.742Z,99653.56
2022-11-10T04:01:12.407Z,99654.72
2022-11-10T04:03:58.614Z,99666.66
2022-11-10T04:07:05.270Z,99671.53
2022-11-10T04:09:51.509Z,99670.12
2022-11-10T04:12:56.646Z,99669.25
2022-11-10T04:15:43.176Z,99679.22
2022-11-10T04:18:30.088Z,99680.84
2022-11-10T04:21:16.306Z,99684.25
2022-11-10T04:24:02.988Z,99685.34
2022-11-10T04:26:49.999Z,99686.06
2022-11-10T04:29:36.587Z,99681.78
2022-11-10T04:32:22.975Z,99673.94
2022-11-10T04:35:09.554Z,99683.28
2022-11-10T04:37:56.003Z,99679.59
2022-11-10T04:40:42.665Z,99681.03
2022-11-10T04:43:29.237Z,99687.69
2022-11-10T04:46:25.404Z,99695.56
2022-11-10T04:49:11.989Z,99693.03
2022-11-10T04:51:58.326Z,99694.69
2022-11-10T04:54:44.368Z,99697.97
2022-11-10T04:57:30.614Z,99706.50
2022-11-10T05:00:17.735Z,99711.19
2022-11-10T05:03:06.306Z,99717.53
2022-11-10T05:05:52.898Z,99721.38
2022-11-10T05:08:40.027Z,99718.59
2022-11-10T05:11:26.292Z,99717.06
2022-11-10T05:14:12.745Z,99717.34
2022-11-10T05:16:58.944Z,99722.78
2022-11-10T05:19:47.578Z,99724.88
2022-11-10T05:22:33.945Z,99727.19
2022-11-10T05:25:20.439Z,99735.41
2022-11-10T05:28:07.763Z,99738.44
2022-11-10T05:30:54.325Z,99742.47
2022-11-10T05:33:40.815Z,99737.66
2022-11-10T05:36:27.040Z,99742.59
2022-11-10T05:39:13.386Z,99741.00
2022-11-10T05:41:59.594Z,99749.31
2022-11-10T05:44:45.980Z,99755.56
2022-11-10T05:47:32.434Z,99758.34
2022-11-10T05:50:19.796Z,99759.06
2022-11-10T05:53:06.155Z,99771.31
2022-11-10T05:55:52.606Z,99777.38
2022-11-10T05:58:38.905Z,99770.59
2022-11-10T06:01:25.483Z,99781.16
2022-11-10T06:04:11.919Z,99787.19
2022-11-10T06:06:58.510Z,99793.88
2022-11-10T06:09:45.929Z,99795.91
2022-11-10T06:12:31.989Z,99795.69
2022-11-10T06:15:18.535Z,99801.75
2022-11-10T06:18:05.063Z,99812.41
2022-11-10T06:20:51.397Z,99809.38
2022-11-10T06:23:37.545Z,99814.50
2022-11-10T06:26:24.186Z,99827.34
2022-11-10T06:29:10.415Z,99839.16
2022-11-10T06:31:57.844Z,99839.91
2022-11-10T06:34:44.176Z,99834.09
2022-11-10T06:37:30.686Z,99835.06
2022-11-10T06:40:17.488Z,99840.87
2022-11-10T06:43:04.097Z,99839.94
2022-11-10T06:45:50.254Z,99840.94
2022-11-10T06:48:36.828Z,99853.34
2022-11-10T06:51:23.014Z,99860.06
2022-11-10T06:54:09.398Z,99867.69
2022-11-10T06:56:55.805Z,99870.94
2022-11-10T06:59:41.803Z,99877.59
2022-11-10T07:02:28.314Z,99888.00
2022-11-10T07:05:15.731Z,99878.34
2022-11-10T07:08:06.637Z,99891.94
2022-11-10T07:10:54.463Z,99897.97
2022-11-10T07:13:40.694Z,99904.16
2022-11-10T07:16:27.356Z,99906.91
2022-11-10T07:19:13.503Z,99909.19
2022-11-10T07:21:59.685Z,99909.03
2022-11-10T07:24:46.433Z,99905.06
2022-11-10T07:27:32.807Z,99909.19
2022-11-10T07:30:19.258Z,99909.09
2022-11-10T07:33:12.333Z,99908.00
2022-11-10T07:36:01.338Z,99907.38
2022-11-10T07:38:48.149Z,99911.63
2022-11-10T07:41:34.596Z,99919.50
2022-11-10T07:44:21.214Z,99925.37
2022-11-10T07:47:07.674Z,99930.84
2022-11-10T07:49:54.185Z,99938.69
2022-11-10T07:52:40.527Z,99938.38
2022-11-10T07:55:27.043Z,99927.25
2022-11-10T07:58:15.216Z,99937.56
2022-11-10T08:01:02.012Z,99936.00
2022-11-10T08:03:48.470Z,99930.13
2022-11-10T08:06:36.824Z,99935.13
2022-11-10T08:09:23.578Z,99943.59
2022-11-10T08:12:09.779Z,99954.50
2022-11-10T08:14:56.386Z,99960.47
2022-11-10T08:17:42.606Z,99961.34
2022-11-10T08:20:29.659Z,99969.66
2022-11-10T08:23:16.037Z,99966.72
2022-11-10T08:26:02.576Z,99970.28
2022-11-10T08:28:48.942Z,99962.78
2022-11-10T08:31:35.337Z,99965.25
2022-11-10T08:34:23.434Z,99966.72
2022-11-10T08:37:10.217Z,99970.31
2022-11-10T08:39:56.315Z,99979.31
2022-11-10T08:42:43.255Z,99991.44
2022-11-10T08:45:30.077Z,99993.09
2022-11-10T08:48:20.954Z,100011.72
2022-11-10T08:51:07.506Z,100011.13
2022-11-10T08:53:53.842Z,100017.81
2022-11-10T08:56:40.146Z,100033.09
2022-11-10T08:59:26.728Z,100034.72
2022-11-10T09:02:13.367Z,100037.09
2022-11-10T09:04:59.915Z,100031.91
2022-11-10T09:07:46.699Z,100032.16
2022-11-10T09:10:34.926Z,100030.72
2022-11-10T09:13:26.275Z,100038.62
2022-11-10T09:16:16.145Z,100038.41
2022-11-10T09:19:02.477Z,100045.62
2022-11-10T09:21:48.961Z,100051.97
2022-11-10T09:24:35.897Z,100043.53
2022-11-10T09:27:22.413Z,100050.16
2022-11-10T09:30:13.087Z,100050.91
2022-11-10T09:33:03.839Z,100049.91
2022-11-10T09:35:51.186Z,100051.91
2022-11-10T09:38:38.137Z,100059.19
2022-11-10T09:41:24.735Z,100065.41
2022-11-10T09:44:17.146Z,100073.81
2022-11-10T09:50:48.873Z,100075.38
2022-11-10T09:54:05.456Z,100073.81
2022-11-10T09:56:53.767Z,100085.56
2022-11-10T09:59:40.612Z,100090.72
2022-11-10T10:02:33.258Z,100090.81
2022-11-10T10:06:02.676Z,100098.06
2022-11-10T10:09:06.246Z,100095.56
2022-11-10T10:12:18.718Z,100106.03
2022-11-10T10:15:31.474Z,100100.12
2022-11-10T10:18:22.242Z,100101.44
2022-11-10T10:21:28.351Z,100103.28
2022-11-10T10:24:21.793Z,100098.56
2022-11-10T10:27:19.561Z,100099.25
2022-11-10T10:30:14.026Z,100098.72
2022-11-10T10:33:28.054Z,100096.12
2022-11-10T10:36:18.036Z,100101.37
2022-11-10T10:39:18.066Z,100106.44
2022-11-10T10:42:10.127Z,100105.81
2022-11-10T10:45:20.130Z,100096.59
2022-11-10T10:48:24.591Z,100103.88
2022-11-10T10:51:11.067Z,100100.88
2022-11-10T10:53:57.335Z,100095.31
2022-11-10T10:56:43.775Z,100108.66
2022-11-10T10:59:30.165Z,100103.81
2022-11-10T11:02:34.399Z,100114.66
2022-11-10T11:05:20.736Z,100111.47
2022-11-10T11:08:18.498Z,100111.97
2022-11-10T11:11:12.313Z,100117.56
2022-11-10T11:14:27.385Z,100129.22
2022-11-10T11:17:19.489Z,100135.66
2022-11-10T11:20:15.161Z,100134.81
2022-11-10T11:23:26.984Z,100138.47
2022-11-10T11:26:26.356Z,100123.34
2022-11-10T11:29:15.627Z,100128.44
2022-11-10T11:32:25.256Z,100135.00
2022-11-10T11:35:50.924Z,100133.38
2022-11-10T11:38:46.386Z,100132.91
2022-11-10T11:41:39.794Z,100138.16
2022-11-10T11:45:14.806Z,100140.72
2022-11-10T11:48:17.034Z,100137.72
2022-11-10T11:51:12.363Z,100142.03
2022-11-10T11:54:20.054Z,100147.31
2022-11-10T11:57:15.003Z,100145.66
2022-11-10T12:00:18.462Z,100141.84
2022-11-10T12:03:33.362Z,100142.81
2022-11-10T12:06:19.444Z,100147.91
2022-11-10T12:09:08.552Z,100142.81
2022-11-10T12:11:57.977Z,100157.91
2022-11-10T12:15:05.475Z,100149.78
2022-11-10T12:18:29.854Z,100143.56
2022-11-10T12:21:44.717Z,100144.56
2022-11-10T12:24:57.386Z,100157.41
2022-11-10T12:27:48.641Z,100162.50
2022-11-10T12:30:36.294Z,100178.03
2022-11-10T12:33:31.879Z,100174.09
2022-11-10T12:36:20.059Z,100184.81
2022-11-10T12:39:23.593Z,100193.81
2022-11-10T12:42:18.338Z,100190.97
2022-11-10T12:45:41.793Z,100187.59
2022-11-10T12:48:36.555Z,100193.91
2022-11-10T12:51:48.632Z,100183.25
2022-11-10T12:54:35.805Z,100193.91
2022-11-10T12:57:27.453Z,100198.03
2022-11-10T13:00:26.723Z,100189.69
2022-11-10T13:03:35.224Z,100191.28
2022-11-10T13:06:38.313Z,100196.41
2022-11-10T13:09:28.644Z,100197.25
2022-11-10T13:12:19.274Z,100199.75
2022-11-10T13:15:37.554Z,100203.69
2022-11-10T13:18:31.087Z,100209.34
2022-11-10T13:21:17.682Z,100209.59
2022-11-10T13:24:13.497Z,100210.47
2022-11-10T13:27:04.511Z,100215.69
2022-11-10T13:29:56.396Z,100220.13
2022-11-10T13:32:43.423Z,100225.34
2022-11-10T13:35:29.763Z,100229.50
2022-11-10T13:38:39.165Z,100232.12
2022-11-10T13:41:26.744Z,100236.53
2022-11-10T13:44:26.356Z,100231.28
2022-11-10T13:47:35.277Z,100245.28
2022-11-10T13:50:36.535Z,100241.78
2022-11-10T13:53:41.146Z,100240.69
2022-11-10T13:56:47.868Z,100248.78
2022-11-10T13:59:45.290Z,100249.66
2022-11-10T14:02:40.859Z,100240.03
2022-11-10T14:05:42.321Z,100245.34
2022-11-10T14:08:30.080Z,100256.34
2022-11-10T14:11:29.684Z,100255.91
2022-11-10T14:14:44.897Z,100261.09
2022-11-10T14:17:36.409Z,100260.31
2022-11-10T14:20:42.773Z,100262.12
2022-11-10T14:23:44.014Z,100270.66
2022-11-10T14:26:59.306Z,100271.47
2022-11-10T14:29:48.292Z,100271.66
2022-11-10T14:32:36.089Z,100277.75
2022-11-10T14:35:28.617Z,100286.62
2022-11-10T14:38:21.998Z,100284.81
2022-11-10T14:41:17.106Z,100289.13
2022-11-10T14:44:12.092Z,100288.47
2022-11-10T14:47:14.284Z,100299.56
2022-11-10T14:50:13.960Z,100293.44
2022-11-10T14:53:24.666Z,100301.28
2022-11-10T14:56:18.974Z,100302.03
2022-11-10T14:59:06.956Z,100299.53
2022-11-10T15:01:56.913Z,100304.69
2022-11-10T15:04:46.207Z,100304.03
2022-11-10T15:07:33.277Z,100308.22
2022-11-10T15:10:21.715Z,100303.16
2022-11-10T15:13:14.438Z,100303.91
2022-11-10T15:16:37.824Z,100307.38
2022-11-10T15:19:40.332Z,100304.87
2022-11-10T15:22:37.182Z,100301.34
2022-11-10T15:25:26.822Z,100313.50
2022-11-10T15:28:15.186Z,100319.75
2022-11-10T15:31:05.235Z,100330.06
2022-11-10T15:33:58.062Z,100319.75
2022-11-10T15:36:44.626Z,100327.66
2022-11-10T15:39:31.411Z,100332.81
2022-11-10T15:42:23.377Z,100341.34
2022-11-10T15:45:10.498Z,100344.28
2022-11-10T15:47:57.400Z,100347.66
2022-11-10T15:50:46.375Z,100342.37
2022-11-10T15:53:40.583Z,100342.31
2022-11-10T15:56:27.414Z,100343.22
2022-11-10T15:59:14.048Z,100345.00
2022-11-10T16:02:01.323Z,100347.56
2022-11-10T16:04:51.677Z,100356.25
2022-11-10T16:07:42.001Z,100358.06
2022-11-10T16:10:30.115Z,100361.69
2022-11-10T16:13:27.312Z,100368.63
2022-11-10T16:16:18.212Z,100354.66
2022-11-10T16:19:08.236Z,100363.28
2022-11-10T16:21:57.688Z,100370.22
2022-11-10T16:24:47.322Z,100385.16
2022-11-10T16:27:39.906Z,100392.13
2022-11-10T16:30:33.430Z,100392.97
2022-11-10T16:33:25.255Z,100392.91
2022-11-10T16:36:32.413Z,100396.41
2022-11-10T16:39:19.177Z,100406.91
2022-11-10T16:42:06.185Z,100405.12
2022-11-10T16:44:52.803Z,100416.50
2022-11-10T16:47:39.552Z,100416.50
2022-11-10T16:50:35.753Z,100419.00
2022-11-10T16:53:29.027Z,100425.16
2022-11-10T16:56:17.292Z,100433.87
2022-11-10T16:59:04.943Z,100434.75
2022-11-10T17:01:53.513Z,100438.28
2022-11-10T17:04:40.262Z,100444.34
2022-11-10T17:07:28.246Z,100450.41
2022-11-10T17:21:51.399Z,100500.88
2022-11-10T17:24:38.538Z,100500.88
2022-11-10T17:27:27.129Z,100497.47
2022-11-10T17:30:15.329Z,100500.94
2022-11-10T17:33:05.269Z,100500.94
2022-11-10T17:35:52.937Z,100508.78
2022-11-10T17:38:40.647Z,100506.19
2022-11-10T17:41:26.956Z,100509.66
2022-11-10T17:44:14.819Z,100516.59
2022-11-10T17:47:01.332Z,100514.87
2022-11-10T17:49:47.991Z,100526.19
2022-11-10T17:52:34.391Z,100534.06
2022-11-10T17:55:31.152Z,100535.72
2022-11-10T17:58:21.004Z,100536.63
2022-11-10T18:01:19.250Z,100539.03
2022-11-10T18:04:06.034Z,100548.00
2022-11-10T18:06:52.965Z,100547.97
2022-11-10T18:09:40.654Z,100554.50
2022-11-10T18:12:27.907Z,100552.16
2022-11-10T18:15:16.159Z,100547.88
2022-11-10T18:18:02.645Z,100552.22
2022-11-10T18:20:52.031Z,100542.66
2022-11-10T18:23:41.091Z,100552.06
2022-11-10T18:26:29.268Z,100555.59
2022-11-10T18:29:16.057Z,100558.87
2022-11-10T18:32:03.426Z,100559.69
2022-11-10T18:34:50.417Z,100563.09
2022-11-10T18:37:39.249Z,100558.00
2022-11-10T18:40:25.696Z,100570.75
2022-11-10T18:43:12.336Z,100572.63
2022-11-10T18:45:58.967Z,100572.72
2022-11-10T18:48:46.477Z,100573.34
2022-11-10T18:51:33.635Z,100583.78
2022-11-10T18:54:20.180Z,100602.84
2022-11-10T18:57:06.322Z,100596.69
2022-11-10T18:59:52.838Z,100604.44
2022-11-10T19:02:40.385Z,100614.03
2022-11-10T19:05:29.902Z,100611.28
2022-11-10T19:08:16.840Z,100627.09
2022-11-10T19:11:17.163Z,100627.97
2022-11-10T19:14:03.835Z,100628.91
2022-11-10T19:16:54.385Z,100626.13
2022-11-10T19:19:40.895Z,100627.19
2022-11-10T19:22:27.696Z,100632.38
2022-11-10T19:25:14.319Z,100638.38
2022-11-10T19:28:01.796Z,100633.91
2022-11-10T19:30:48.265Z,100633.84
2022-11-10T19:33:36.704Z,100640.13
2022-11-10T19:36:24.897Z,100646.31
2022-11-10T19:39:11.106Z,100644.47
2022-11-10T19:41:57.399Z,100654.91
2022-11-10T19:44:43.964Z,100647.13
2022-11-10T19:47:31.309Z,100645.28
2022-11-10T19:50:18.160Z,100649.31
2022-11-10T19:53:05.035Z,100643.28
2022-11-10T19:55:51.767Z,100649.94
2022-11-10T19:58:39.446Z,100649.94
2022-11-10T20:01:26.811Z,100644.59
2022-11-10T20:04:14.313Z,100643.94
2022-11-10T20:07:19.083Z,100644.78
2022-11-10T20:10:06.490Z,100643.69
2022-11-10T20:12:52.894Z,100643.63
2022-11-10T20:15:42.650Z,100641.84
2022-11-10T20:18:29.735Z,100649.31
2022-11-10T20:21:18.095Z,100655.22
2022-11-10T20:24:04.654Z,100653.19
2022-11-10T20:26:51.028Z,100651.38
2022-11-10T20:29:37.857Z,100655.84
2022-11-10T20:32:25.452Z,100660.00
2022-11-10T20:35:11.887Z,100660.41
2022-11-10T20:37:58.780Z,100664.81
2022-11-10T20:40:45.403Z,100673.25
2022-11-10T20:43:34.104Z,100681.91
2022-11-10T20:46:48.191Z,100685.81
2022-11-10T20:49:28.507Z,100686.91
2022-11-10T20:52:15.160Z,100685.75
2022-11-10T20:55:02.251Z,100688.34
2022-11-10T20:57:48.748Z,100692.06
2022-11-10T21:00:35.535Z,100692.53
2022-11-10T21:03:23.164Z,100694.81
2022-11-10T21:06:09.950Z,100692.53
2022-11-10T21:08:57.354Z,100704.44
2022-11-10T21:12:02.600Z,100701.03
2022-11-10T21:14:49.040Z,100712.09
2022-11-10T21:17:38.077Z,100715.75
2022-11-10T21:20:26.993Z,100717.91
2022-11-10T21:23:14.365Z,100722.25
2022-11-10T21:26:01.018Z,100718.63
2022-11-10T21:28:47.874Z,100715.06
2022-11-10T21:31:34.355Z,100709.62
2022-11-10T21:34:20.395Z,100720.38
2022-11-10T21:37:07.126Z,100715.94
2022-11-10T21:39:53.961Z,100728.06
2022-11-10T21:42:40.812Z,100714.34
2022-11-10T21:45:27.376Z,100729.97
2022-11-10T21:48:13.939Z,100729.94
2022-11-10T21:51:04.172Z,100738.00
2022-11-10T21:53:50.515Z,100738.16
2022-11-10T21:56:37.070Z,100750.06
2022-11-10T21:59:23.364Z,100749.94
2022-11-10T22:02:10.882Z,100755.25
2022-11-10T22:04:57.374Z,100748.25
2022-11-10T22:07:43.917Z,100747.66
2022-11-10T22:10:49.409Z,100749.59
2022-11-10T22:13:54.854Z,100754.94
2022-11-10T22:17:08.137Z,100769.03
2022-11-10T22:19:55.229Z,100772.53
2022-11-10T22:22:41.760Z,100769.81
2022-11-10T22:25:28.423Z,100772.63
2022-11-10T22:28:14.676Z,100765.75
2022-11-10T22:31:03.376Z,100771.81
2022-11-10T22:33:50.033Z,100767.56
2022-11-10T22:36:36.289Z,100765.91
2022-11-10T22:39:22.666Z,100754.97
2022-11-10T22:42:30.642Z,100755.56
2022-11-10T22:45:17.303Z,100754.88
2022-11-10T22:48:22.510Z,100746.03
2022-11-10T22:51:08.911Z,100745.19
2022-11-10T22:53:55.554Z,100746.91
2022-11-10T22:56:42.583Z,100745.00
2022-11-10T22:59:29.044Z,100743.00
2022-11-10T23:02:15.198Z,100736.00
2022-11-10T23:05:01.901Z,100739.88
2022-11-10T23:07:48.783Z,100738.34
2022-11-10T23:10:35.064Z,100729.00
2022-11-10T23:13:21.500Z,100723.78
2022-11-10T23:16:08.873Z,100732.22
2022-11-10T23:18:56.854Z,100719.38
2022-11-10T23:21:43.483Z,100729.97
2022-11-10T23:24:30.695Z,100735.22
2022-11-10T23:27:17.194Z,100731.91
2022-11-10T23:30:03.882Z,100732.75
2022-11-10T23:32:50.483Z,100736.69
2022-11-10T23:35:36.793Z,100740.16
2022-11-10T23:38:23.014Z,100734.38
2022-11-10T23:41:13.744Z,100739.16
2022-11-10T23:44:00.214Z,100736.00
2022-11-10T23:46:46.632Z,100737.12
2022-11-10T23:49:32.785Z,100732.00
2022-11-10T23:52:19.367Z,100740.44
2022-11-10T23:55:06.263Z,100742.50
2022-11-10T23:57:52.764Z,100743.13
